Les Copains Cyfac 2016 - 01/07/2016

115 Km Chrono - La Forézienne

435 participants classés


Retour au Sommaire - Signaler une erreur - Faire défiler





1 2 3 4 5 6 7 8 9 /fin /tout

page suivante ->

Diplôme ici! Pl Do. Nom - Surname Prénom - Name S-Cat /cat Club - Team TEMPS - Time Km/h /sx
1 956 TAMET ANTOINE MD 1   03:35:32 32,0 1
2 1219 PILLET XAVIER MD 2   03:35:33 32,0 2
3 136 GOUTAGNY NICOLAS ME 1 CYCLOS TALAUDIERE SORBIERS 03:35:33 32,0 3
4 13 ROUGEMONT FRED ME 2 VS GERZATOIS 03:35:57 31,9 4
5 87 LEBRETON JéROME MD 3 EC CLERMONT FERRAND 03:36:20 31,9 5
6 76 GUILLAUMONT CYRIL ME 3 VC CASTELPONTIN 03:36:28 31,9 6
7 106 TRIAUX SIMON MC 1 VC VILLEFRANCHE BEAUJOLAIS 03:37:41 31,7 7
8 1184 LAURENDON LOïC MD 4 TEAM VELOPUISSANCE 03:37:42 31,7 8
9 150 MARCOUX BENOIT MD 5 CC MARCILLY 03:38:03 31,6 9
10 235 DEBROSSE PAULIN MC 2 TEAM BV SPORT LOIRE 03:38:03 31,6 10
11 238 CUISY NYCOLAS MC 3 LYON SE 03:39:04 31,5 11
12 171 MONNET JULIEN ME 4 ASC OUZOUER 03:39:22 31,5 12
13 697 MAS éRIC MC 4 EC CLERMONT FERRAND 03:39:23 31,5 13
14 163 DUQUET CHRISTOPHE MG 1 ASPTT CLERMONT FERRAND 03:39:24 31,4 14
15 706 GUILHE YVES MF 1 VS BRIVADOIS 03:40:00 31,4 15
16 126 GONCALVES SERGE MG 2 AC MOULIN A VENT 03:40:04 31,4 16
17 873 DUMAS SéBASTIEN MD 6 VC SALINDRES ST PRIVAT 03:42:07 31,1 17
18 766 ROCHER DAVID MF 2 VC SALINDRES 03:44:27 30,7 18
19 162 DALLARD BRUNO MF 3 VC LE CHEYLARD 03:46:28 30,5 19
20 86 FAUGIER THIERRY MF 4 EC CLERMONT FERRAND 03:46:28 30,5 20
21 555 LAFAGE MICHAëL MD 7   03:47:01 30,4 21
22 158 FARINET DIDIER MF 5 ASOS ST GALMIER 03:47:01 30,4 22
23 79 MERLE OLIVIER MG 3   03:47:02 30,4 23
24 154 ROUSTAIN ARNAUD MC 5 VC DU HAUT LIGNON 03:48:56 30,1 24
25 331 FORVEILLE ANTOINE MD 8   03:49:02 30,1 25
26 1262 MEUSNIER THIERRY MD 9 TITANE 03:49:21 30,1 26
27 110 CAILLET CéDRIC MF 6   03:50:00 30,0 27
28 797 BONNAFOUS XAVIER MC 6 VC COURNON 03:50:01 30,0 28
29 68 FERRER THIERRY MH 1 CC CORNEILHAN 03:50:01 30,0 29
30 181 PERRUSSEL RéGIS MH 2 CC RIOMOIS 03:50:01 30,0 30
31 693 DELPLACE GUILLAUME MC 7 EC CLERMONT FERRAND 03:50:24 29,9 31
32 194 DUMAS THIERRY MF 7 TEAM SPIRIT BIKE 63 03:50:24 29,9 32
33 465 FERNANDES MICHEL MD 10 CC MARCILLY 03:50:24 29,9 33
34 1209 ALBERI THIERRY ME 5   03:50:25 29,9 34
35 1275 SAROUL ALAIN ME 6   03:50:25 29,9 35
36 284 JACQUIN GIL MH 3   03:50:25 29,9 36
37 1192 GéRARD CéDRIC MC 8 VIRINE TC 03:50:25 29,9 37
38 145 VEYRAC GéRARD MJ 1 VC DU VELAY 03:50:26 29,9 38
39 287 SZTELMA YVAN ME 7 ASOS ST GALMIER 03:51:08 29,9 39
40 1243 MACHEFER ARNAUD MC 9   03:51:12 29,8 40
41 1244 MACHEFER ARMAND MC 10   03:51:12 29,8 41
42 900 MALRIC ALEXANDRE MC 11 VC COURNON 03:51:33 29,8 42
43 1090 GEYSSANT MATTHIEU MC 12   03:51:58 29,7 43
44 64 RELIER GILLES MG 4 CR ST CHAMOND 03:52:58 29,6 44
45 107 SANTIA ANDREWS éRIC MG 5 CYCLOS COURNON D'AUVERGNE 03:54:44 29,4 45
46 1208 FROISSART HERVé ME 8   03:54:45 29,4 46
47 147 VERDIER YVAN ME 9   03:54:46 29,4 47
48 1218 MUSKENS MART MC 13   03:54:51 29,4 48
49 32 JéRUM ALAIN MD 11 UV ST ELOY 03:54:56 29,4 49
50 66 VALIERGUES éRIC MF 8 CS LUSSAT 03:55:39 29,3 50
DOMINIQUE a commenté - 09/11/2016 à 18:27 signaler abus
J'ai passé un très bon moment ma première cyclo après 6 pontages.

Déjà membre? Identifiez-vous pour commenter l'épreuve ou créer un compte